x

Long Island - 30 Nm South Of Islip, Ny (44025) Wave Buoy

4:50am - Fri 24th Oct 2014 All times are EDT. -4 hours from GMT.

  • Sig Wave height 5.9ft
  • Swell Direction
  • Peak Period 5s
  • Average Period 5s
  • Wind
    25mph, 31mph gusts
  • Sea Temp 64°f
  • Air Temp 55°f
  • Sea Pressure 1006.7mb
  • Long Island - 30 Nm South Of Islip, Ny
  • Long Island - 30 Nm South Of Islip, Ny

More Historic Weather Station data

Upgrade to MSW Pro to gain access to the past 30 days of data for over 8000 Wavebouys and Weather Stations around the globe.

Join Pro

Comparision Forecast

View Surf forecast
   
Fri 10/24 4:50am 6ft 5s 5s 25 31 mph 1006.7mb 64f 55f
3:50am 5.5ft 6s 5s 25 29 mph 1006.2mb 64f 55f
2:50am 5.5ft 5s 5s 27 31 mph 1005.9mb 64f 55f
1:50am 6ft 5s 5s 27 34 mph 1005.5mb 64f 55f
12:50am 5.5ft 6s 5s 29 34 mph 1005.4mb 64f 55f
Thu 10/23 11:50pm 6ft 5s 5s 29 34 mph 1005.5mb 64f 55f
10:50pm 6.5ft 6s 5s 29 34 mph 1005.8mb 64f 54f
9:50pm 6ft 5s 5s 29 36 mph 1005.6mb 64f 54f
8:50pm 7ft 6s 5s 29 38 mph 1004.9mb 64f 55f
7:50pm 7ft 6s 5s 31 36 mph 1004.5mb 64f 55f
6:50pm 7ft 6s 5s 29 36 mph 1004mb 64f 55f
5:50pm 6.5ft 6s 5s 31 38 mph 1003.2mb 64f 55f
4:50pm 7ft 6s 5s 27 34 mph 1002.8mb 64f 55f
3:50pm 8ft 6s 5s 27 31 mph 1002.6mb 64f 54f
2:50pm 7ft 6s 5s 27 34 mph 1002.5mb 64f 54f
1:50pm 7ft 9s 5s 27 31 mph 1002.5mb 64f 55f
12:50pm 7ft 5s 5s 25 31 mph 1002.5mb 64f 56f
11:50am 7ft 5s 5s 29 38 mph 1002.6mb 64f 57f
10:50am 7ft 5s 5s 31 38 mph 1002.3mb 64f 56f
9:50am 8ft 6s 5s 31 38 mph 1001.9mb 64f 56f
8:50am 8ft 8s 5s 34 40 mph 1002mb 64f 55f
7:50am 8.5ft 5s 5s 34 40 mph 1001.7mb 64f 55f
6:50am 8.5ft 7s 5s 34 40 mph 1001.3mb 64f 55f
5:50am 9ft 7s 6s 34 43 mph 1001.4mb 64f 55f
4:50am 10ft 7s 6s 34 43 mph 1001.3mb 64f 56f
3:50am 9ft 7s 6s 36 45 mph 1000.9mb 64f 56f
2:50am 9.5ft 7s 5s 38 45 mph 1000.8mb 64f 56f
1:50am 9ft 6s 5s 38 45 mph 1001.1mb 64f 57f
12:50am 9ft 7s 5s 34 40 mph 1001.6mb 64f 58f
Wed 10/22 11:50pm 10ft 8s 6s 31 38 mph 1002.2mb 64f 56f
10:50pm 12ft 9s 6s 38 45 mph 1002.3mb 64f 55f
9:50pm 9.5ft 8s 6s 38 47 mph 1002mb 64f 55f
8:50pm 9ft 8s 6s 36 43 mph 1003.1mb 64f 56f
7:50pm 9.5ft 7s 6s 34 43 mph 1003.9mb 64f 55f
6:50pm 10.5ft 8s 6s 34 40 mph 1004.8mb 64f 56f
5:50pm 11ft 7s 6s 40 49 mph 1004mb 64f 55f
4:50pm 10ft 7s 6s 36 45 mph 1004.8mb 64f 57f
3:50pm 10ft 7s 6s 38 47 mph 1005.6mb 64f 58f
2:50pm 9.5ft 7s 6s 36 43 mph 1006mb 64f 59f
1:50pm 9ft 7s 6s 34 43 mph 1007.3mb 64f 60f
12:50pm 7.5ft 7s 5s 34 40 mph 1008.1mb 64f 59f
11:50am 8ft 6s 5s 31 38 mph 1009.5mb 64f 59f
10:50am 8ft 7s 5s 29 36 mph 1010.4mb 64f 58f
9:50am 8.5ft 7s 6s 31 36 mph 1010.3mb 64f 58f
8:50am 8ft 7s 5s 34 40 mph 1010.3mb 64f 59f
7:50am 7ft 6s 5s 34 43 mph 1008.7mb 64f 61f
6:50am 6.5ft 6s 5s 27 34 mph 1008.6mb 64f 62f
5:50am 6ft 5s 5s 27 31 mph 1009mb 64f 62f
4:50am 5ft 5s 4s 25 31 mph 1009.5mb 64f 62f
3:50am 4.5ft 6s 4s 25 29 mph 1009.1mb 64f 62f
2:50am 3.5ft 7s 4s 20 27 mph 1009.7mb 64f 63f
1:50am 3.5ft 7s 4s 18 22 mph 1010.6mb 64f 63f
12:50am 3.5ft 7s 5s 18
mph
1011.1mb 64f 63f
Tue 10/21 11:50pm 3ft 7s 5s 16 20 mph 1011.4mb 64f 63f
10:50pm 3ft 7s 5s 13 16 mph 1011.7mb 64f 63f
9:50pm 3.5ft 7s 5s 9 11 mph 1011.7mb 64f 63f
8:50pm 3.5ft 7s 6s 11
mph
1011mb 64f 62f
7:50pm 3.5ft 7s 6s 11 13 mph 1010.8mb 64f 61f
6:50pm 3ft 6s 5s 13
mph
1010.5mb 64f 60f
5:50pm 3ft 6s 5s 7
mph
1010.4mb 64f 59f
4:50pm 3.5ft 6s 4s 13 20 mph 1010.4mb 64f 57f
3:50pm 3.5ft 6s 5s 11 13 mph 1009.7mb 64f 64f
2:50pm 3.5ft 6s 5s 9
mph
1010mb 64f 65f
1:50pm 2.5ft 6s 5s 9 11 mph 1010.6mb 64f 64f
12:50pm 2.5ft 6s 5s 13 16 mph 1011.1mb 64f 64f
11:50am 2.5ft 6s 5s 13
mph
1011.7mb 64f 64f
10:50am 3ft 6s 5s 11 13 mph 1012.3mb 64f 64f
9:50am 3.5ft 6s 5s 9
mph
1012.8mb 63f 63f
8:50am 4ft 6s 5s 4 7 mph 1012.5mb 64f 64f
7:50am 3.5ft 6s 5s 2 4 mph 1012.6mb 63f 63f
6:50am 4.5ft 6s 5s 4 7 mph 1012.6mb 63f 63f
5:50am 4ft 6s 5s 7 9 mph 1012.6mb 64f 63f
4:50am 4.5ft 6s 5s 7 9 mph 1012.6mb 64f 63f
3:50am 4.5ft 7s 5s 11 13 mph 1013mb 64f 63f
2:50am 5ft 6s 5s 16 18 mph 1013.7mb 64f 63f
1:50am 5ft 6s 5s 16 18 mph 1014.3mb 64f 63f
12:50am 5.5ft 6s 5s 16 18 mph 1014.8mb 64f 63f
Mon 10/20 11:50pm 5.5ft 6s 5s 18 22 mph 1015.1mb 64f 63f
10:50pm 5.5ft 6s 5s 22 27 mph 1015.4mb 64f 63f
9:50pm 5ft 6s 5s 22 27 mph 1015.5mb 64f 62f
8:50pm 4.5ft 5s 5s 22 27 mph 1015.6mb 64f 62f
7:50pm 4.5ft 5s 4s 20 25 mph 1015.6mb 64f 62f
6:50pm 3.5ft 5s 4s 20 25 mph 1015.4mb 64f 61f
5:50pm 3.5ft 4s 4s 18 22 mph 1015.7mb 64f 60f
4:50pm 3ft 4s 4s 18 22 mph 1016.1mb 64f 59f
3:50pm 2.5ft 4s 4s 18 22 mph 1016.8mb 64f 58f
2:50pm 2ft 12s 4s 16 20 mph 1017.3mb 64f 57f
1:50pm 1.6ft 13s 4s 13 18 mph 1018.1mb 64f 56f
12:50pm 1.6ft 11s 5s 16 18 mph 1018.8mb 64f 54f
11:50am 1.6ft 11s 5s 11 16 mph 1020.1mb 64f 53f
10:50am 1.6ft 11s 5s 11 16 mph 1020.6mb 64f 52f